sensor_id;sensor_type;location;lat;lon;timestamp;P1;durP1;ratioP1;P2;durP2;ratioP2
24102;SDS011;12278;53.058;9.028;2023-08-21T00:01:07;5.63;;;2.63;;
24102;SDS011;12278;53.058;9.028;2023-08-21T00:05:07;4.60;;;2.88;;
24102;SDS011;12278;53.058;9.028;2023-08-21T00:09:09;3.22;;;2.72;;
24102;SDS011;12278;53.058;9.028;2023-08-21T00:13:09;7.63;;;2.75;;
24102;SDS011;12278;53.058;9.028;2023-08-21T00:17:10;3.05;;;2.72;;
24102;SDS011;12278;53.058;9.028;2023-08-21T00:21:11;8.20;;;3.08;;
24102;SDS011;12278;53.058;9.028;2023-08-21T00:25:11;6.75;;;3.13;;
24102;SDS011;12278;53.058;9.028;2023-08-21T00:29:12;3.45;;;3.08;;
24102;SDS011;12278;53.058;9.028;2023-08-21T00:33:13;2.92;;;2.67;;
24102;SDS011;12278;53.058;9.028;2023-08-21T00:37:13;3.83;;;2.92;;
24102;SDS011;12278;53.058;9.028;2023-08-21T00:41:14;5.97;;;2.70;;
24102;SDS011;12278;53.058;9.028;2023-08-21T00:45:14;3.25;;;2.50;;
24102;SDS011;12278;53.058;9.028;2023-08-21T00:49:15;5.35;;;2.58;;
24102;SDS011;12278;53.058;9.028;2023-08-21T00:53:16;3.65;;;2.65;;
24102;SDS011;12278;53.058;9.028;2023-08-21T00:57:17;3.97;;;2.75;;
24102;SDS011;12278;53.058;9.028;2023-08-21T01:01:18;5.10;;;3.13;;
24102;SDS011;12278;53.058;9.028;2023-08-21T01:05:23;5.63;;;2.60;;
24102;SDS011;12278;53.058;9.028;2023-08-21T01:09:25;3.42;;;2.58;;
24102;SDS011;12278;53.058;9.028;2023-08-21T01:18:02;3.90;;;2.47;;
24102;SDS011;12278;53.058;9.028;2023-08-21T01:22:04;5.90;;;3.13;;
24102;SDS011;12278;53.058;9.028;2023-08-21T01:26:05;5.22;;;2.92;;
24102;SDS011;12278;53.058;9.028;2023-08-21T01:30:05;5.90;;;2.88;;
24102;SDS011;12278;53.058;9.028;2023-08-21T01:34:07;6.30;;;3.53;;
24102;SDS011;12278;53.058;9.028;2023-08-21T01:38:10;4.85;;;3.45;;
24102;SDS011;12278;53.058;9.028;2023-08-21T01:42:12;4.22;;;3.40;;
24102;SDS011;12278;53.058;9.028;2023-08-21T01:46:12;4.53;;;3.05;;
24102;SDS011;12278;53.058;9.028;2023-08-21T01:50:13;4.38;;;3.13;;
24102;SDS011;12278;53.058;9.028;2023-08-21T01:54:14;3.65;;;3.05;;
24102;SDS011;12278;53.058;9.028;2023-08-21T01:58:14;4.25;;;2.83;;
24102;SDS011;12278;53.058;9.028;2023-08-21T02:02:15;5.28;;;3.33;;
24102;SDS011;12278;53.058;9.028;2023-08-21T02:06:15;5.75;;;3.28;;
24102;SDS011;12278;53.058;9.028;2023-08-21T02:10:16;5.90;;;2.72;;
24102;SDS011;12278;53.058;9.028;2023-08-21T02:14:17;4.03;;;3.22;;
24102;SDS011;12278;53.058;9.028;2023-08-21T02:18:17;6.68;;;3.63;;
24102;SDS011;12278;53.058;9.028;2023-08-21T02:22:18;3.20;;;2.90;;
24102;SDS011;12278;53.058;9.028;2023-08-21T02:26:19;4.63;;;2.63;;
24102;SDS011;12278;53.058;9.028;2023-08-21T02:30:20;4.10;;;2.95;;
24102;SDS011;12278;53.058;9.028;2023-08-21T02:34:25;3.97;;;2.83;;
24102;SDS011;12278;53.058;9.028;2023-08-21T02:38:26;3.95;;;3.03;;
24102;SDS011;12278;53.058;9.028;2023-08-21T02:42:27;4.97;;;2.85;;
24102;SDS011;12278;53.058;9.028;2023-08-21T02:46:27;7.15;;;3.50;;
24102;SDS011;12278;53.058;9.028;2023-08-21T02:50:28;3.00;;;2.80;;
24102;SDS011;12278;53.058;9.028;2023-08-21T02:54:29;6.38;;;3.22;;
24102;SDS011;12278;53.058;9.028;2023-08-21T02:58:29;5.28;;;4.00;;
24102;SDS011;12278;53.058;9.028;2023-08-21T03:02:30;5.53;;;3.00;;
24102;SDS011;12278;53.058;9.028;2023-08-21T03:06:31;4.20;;;3.03;;
24102;SDS011;12278;53.058;9.028;2023-08-21T03:10:32;5.10;;;3.00;;
24102;SDS011;12278;53.058;9.028;2023-08-21T03:14:34;4.93;;;3.20;;
24102;SDS011;12278;53.058;9.028;2023-08-21T03:18:45;4.07;;;3.15;;
24102;SDS011;12278;53.058;9.028;2023-08-21T03:22:57;4.53;;;3.30;;
24102;SDS011;12278;53.058;9.028;2023-08-21T03:26:58;5.50;;;2.60;;
24102;SDS011;12278;53.058;9.028;2023-08-21T03:30:59;3.97;;;3.10;;
24102;SDS011;12278;53.058;9.028;2023-08-21T03:35:00;6.32;;;4.07;;
24102;SDS011;12278;53.058;9.028;2023-08-21T03:39:01;3.72;;;3.30;;
24102;SDS011;12278;53.058;9.028;2023-08-21T03:43:03;34.72;;;5.75;;
24102;SDS011;12278;53.058;9.028;2023-08-21T03:47:04;5.68;;;4.25;;
24102;SDS011;12278;53.058;9.028;2023-08-21T03:51:05;5.00;;;3.97;;
24102;SDS011;12278;53.058;9.028;2023-08-21T03:55:05;5.40;;;4.43;;
24102;SDS011;12278;53.058;9.028;2023-08-21T03:59:06;5.03;;;4.43;;
24102;SDS011;12278;53.058;9.028;2023-08-21T04:03:07;4.03;;;3.63;;
24102;SDS011;12278;53.058;9.028;2023-08-21T04:07:07;3.92;;;3.60;;
24102;SDS011;12278;53.058;9.028;2023-08-21T04:11:08;4.63;;;3.80;;
24102;SDS011;12278;53.058;9.028;2023-08-21T04:15:09;4.68;;;4.28;;
24102;SDS011;12278;53.058;9.028;2023-08-21T04:19:10;3.15;;;2.83;;
24102;SDS011;12278;53.058;9.028;2023-08-21T04:23:11;4.53;;;3.80;;
24102;SDS011;12278;53.058;9.028;2023-08-21T04:27:11;4.72;;;4.13;;
24102;SDS011;12278;53.058;9.028;2023-08-21T04:31:12;3.72;;;3.42;;
24102;SDS011;12278;53.058;9.028;2023-08-21T04:35:13;3.97;;;3.55;;
24102;SDS011;12278;53.058;9.028;2023-08-21T04:39:15;3.85;;;3.53;;
24102;SDS011;12278;53.058;9.028;2023-08-21T04:43:15;2.75;;;2.33;;
24102;SDS011;12278;53.058;9.028;2023-08-21T04:47:20;3.40;;;3.10;;
24102;SDS011;12278;53.058;9.028;2023-08-21T04:51:21;3.42;;;3.10;;
24102;SDS011;12278;53.058;9.028;2023-08-21T04:55:22;4.25;;;3.85;;
24102;SDS011;12278;53.058;9.028;2023-08-21T04:59:24;4.47;;;3.80;;
24102;SDS011;12278;53.058;9.028;2023-08-21T05:03:26;3.58;;;3.28;;
24102;SDS011;12278;53.058;9.028;2023-08-21T05:07:26;6.55;;;3.72;;
24102;SDS011;12278;53.058;9.028;2023-08-21T05:11:27;5.25;;;4.18;;
24102;SDS011;12278;53.058;9.028;2023-08-21T05:15:28;8.43;;;4.03;;
24102;SDS011;12278;53.058;9.028;2023-08-21T05:19:28;4.80;;;4.30;;
24102;SDS011;12278;53.058;9.028;2023-08-21T05:23:29;5.43;;;3.92;;
24102;SDS011;12278;53.058;9.028;2023-08-21T05:27:30;4.65;;;3.50;;
24102;SDS011;12278;53.058;9.028;2023-08-21T05:31:33;6.53;;;4.20;;
24102;SDS011;12278;53.058;9.028;2023-08-21T05:35:37;3.78;;;3.33;;
24102;SDS011;12278;53.058;9.028;2023-08-21T05:39:38;4.30;;;3.75;;
24102;SDS011;12278;53.058;9.028;2023-08-21T05:43:39;7.03;;;4.28;;
24102;SDS011;12278;53.058;9.028;2023-08-21T05:47:42;5.75;;;4.68;;
24102;SDS011;12278;53.058;9.028;2023-08-21T05:51:42;7.03;;;4.28;;
24102;SDS011;12278;53.058;9.028;2023-08-21T05:55:43;8.40;;;4.45;;
24102;SDS011;12278;53.058;9.028;2023-08-21T05:59:44;7.93;;;4.38;;
24102;SDS011;12278;53.058;9.028;2023-08-21T06:03:46;9.40;;;5.18;;
24102;SDS011;12278;53.058;9.028;2023-08-21T06:07:47;13.40;;;5.13;;
24102;SDS011;12278;53.058;9.028;2023-08-21T06:11:47;8.38;;;4.60;;
24102;SDS011;12278;53.058;9.028;2023-08-21T06:15:48;8.88;;;4.95;;
24102;SDS011;12278;53.058;9.028;2023-08-21T06:19:49;8.10;;;5.07;;
24102;SDS011;12278;53.058;9.028;2023-08-21T06:23:49;7.80;;;4.85;;
24102;SDS011;12278;53.058;9.028;2023-08-21T06:27:50;11.23;;;5.70;;
24102;SDS011;12278;53.058;9.028;2023-08-21T06:31:50;7.85;;;5.68;;
24102;SDS011;12278;53.058;9.028;2023-08-21T06:35:51;6.97;;;5.20;;
24102;SDS011;12278;53.058;9.028;2023-08-21T06:39:52;5.97;;;5.13;;
24102;SDS011;12278;53.058;9.028;2023-08-21T06:43:52;8.57;;;5.43;;
24102;SDS011;12278;53.058;9.028;2023-08-21T06:47:53;9.43;;;5.55;;
24102;SDS011;12278;53.058;9.028;2023-08-21T06:51:53;9.00;;;5.40;;
24102;SDS011;12278;53.058;9.028;2023-08-21T06:55:54;7.78;;;5.30;;
24102;SDS011;12278;53.058;9.028;2023-08-21T06:59:55;9.02;;;4.45;;
24102;SDS011;12278;53.058;9.028;2023-08-21T07:03:55;9.13;;;3.40;;
24102;SDS011;12278;53.058;9.028;2023-08-21T07:07:56;8.45;;;3.40;;
24102;SDS011;12278;53.058;9.028;2023-08-21T07:11:57;10.48;;;3.95;;
24102;SDS011;12278;53.058;9.028;2023-08-21T07:15:57;7.88;;;3.58;;
24102;SDS011;12278;53.058;9.028;2023-08-21T07:19:58;9.55;;;3.45;;
24102;SDS011;12278;53.058;9.028;2023-08-21T07:23:59;8.35;;;2.90;;
24102;SDS011;12278;53.058;9.028;2023-08-21T07:28:00;4.93;;;3.05;;
24102;SDS011;12278;53.058;9.028;2023-08-21T07:32:01;6.15;;;3.03;;
24102;SDS011;12278;53.058;9.028;2023-08-21T07:36:02;4.85;;;3.10;;
24102;SDS011;12278;53.058;9.028;2023-08-21T07:40:04;9.32;;;3.40;;
24102;SDS011;12278;53.058;9.028;2023-08-21T07:44:05;5.30;;;3.03;;
24102;SDS011;12278;53.058;9.028;2023-08-21T07:48:06;7.05;;;2.80;;
24102;SDS011;12278;53.058;9.028;2023-08-21T07:52:07;9.48;;;3.22;;
24102;SDS011;12278;53.058;9.028;2023-08-21T07:56:07;9.07;;;3.13;;
24102;SDS011;12278;53.058;9.028;2023-08-21T08:00:08;8.25;;;2.72;;
24102;SDS011;12278;53.058;9.028;2023-08-21T08:04:10;6.35;;;2.05;;
24102;SDS011;12278;53.058;9.028;2023-08-21T08:08:11;3.42;;;1.60;;
24102;SDS011;12278;53.058;9.028;2023-08-21T08:12:11;3.28;;;1.63;;
24102;SDS011;12278;53.058;9.028;2023-08-21T08:16:12;4.10;;;2.17;;
24102;SDS011;12278;53.058;9.028;2023-08-21T08:20:13;3.53;;;2.20;;
24102;SDS011;12278;53.058;9.028;2023-08-21T08:24:13;5.45;;;2.00;;
24102;SDS011;12278;53.058;9.028;2023-08-21T08:28:14;8.10;;;2.67;;
24102;SDS011;12278;53.058;9.028;2023-08-21T08:32:14;4.50;;;1.77;;
24102;SDS011;12278;53.058;9.028;2023-08-21T08:36:15;4.88;;;1.60;;
24102;SDS011;12278;53.058;9.028;2023-08-21T08:40:16;4.43;;;1.80;;
24102;SDS011;12278;53.058;9.028;2023-08-21T08:44:16;5.88;;;1.58;;
24102;SDS011;12278;53.058;9.028;2023-08-21T08:48:18;5.07;;;1.60;;
24102;SDS011;12278;53.058;9.028;2023-08-21T08:52:20;4.50;;;1.90;;
24102;SDS011;12278;53.058;9.028;2023-08-21T08:56:24;4.82;;;1.88;;
24102;SDS011;12278;53.058;9.028;2023-08-21T09:00:25;5.13;;;1.90;;
24102;SDS011;12278;53.058;9.028;2023-08-21T09:04:26;6.20;;;1.85;;
24102;SDS011;12278;53.058;9.028;2023-08-21T09:08:26;1.38;;;1.10;;
24102;SDS011;12278;53.058;9.028;2023-08-21T09:12:27;4.00;;;1.38;;
24102;SDS011;12278;53.058;9.028;2023-08-21T09:16:32;4.60;;;2.05;;
24102;SDS011;12278;53.058;9.028;2023-08-21T09:20:36;2.85;;;1.63;;
24102;SDS011;12278;53.058;9.028;2023-08-21T09:24:37;2.65;;;1.30;;
24102;SDS011;12278;53.058;9.028;2023-08-21T09:28:39;3.80;;;1.48;;
24102;SDS011;12278;53.058;9.028;2023-08-21T09:32:52;4.00;;;1.40;;
24102;SDS011;12278;53.058;9.028;2023-08-21T09:36:57;5.50;;;2.00;;
24102;SDS011;12278;53.058;9.028;2023-08-21T09:40:58;1.90;;;1.20;;
24102;SDS011;12278;53.058;9.028;2023-08-21T09:45:00;1.55;;;0.85;;
24102;SDS011;12278;53.058;9.028;2023-08-21T09:49:01;1.80;;;1.25;;
24102;SDS011;12278;53.058;9.028;2023-08-21T09:53:03;5.05;;;1.25;;
24102;SDS011;12278;53.058;9.028;2023-08-21T09:57:05;1.90;;;0.93;;
24102;SDS011;12278;53.058;9.028;2023-08-21T10:01:07;3.25;;;1.30;;
24102;SDS011;12278;53.058;9.028;2023-08-21T10:05:15;3.88;;;1.58;;
24102;SDS011;12278;53.058;9.028;2023-08-21T10:09:17;3.63;;;1.20;;
24102;SDS011;12278;53.058;9.028;2023-08-21T10:13:18;3.67;;;1.10;;
24102;SDS011;12278;53.058;9.028;2023-08-21T10:17:20;1.17;;;1.00;;
24102;SDS011;12278;53.058;9.028;2023-08-21T10:21:21;4.80;;;1.50;;
24102;SDS011;12278;53.058;9.028;2023-08-21T10:25:25;4.93;;;1.60;;
24102;SDS011;12278;53.058;9.028;2023-08-21T10:29:26;3.15;;;1.15;;
24102;SDS011;12278;53.058;9.028;2023-08-21T10:38:16;1.05;;;0.93;;
24102;SDS011;12278;53.058;9.028;2023-08-21T10:42:17;1.77;;;1.25;;
24102;SDS011;12278;53.058;9.028;2023-08-21T10:46:18;4.03;;;1.30;;
24102;SDS011;12278;53.058;9.028;2023-08-21T10:50:19;1.35;;;0.93;;
24102;SDS011;12278;53.058;9.028;2023-08-21T10:54:19;2.53;;;1.50;;
24102;SDS011;12278;53.058;9.028;2023-08-21T10:58:20;6.65;;;1.30;;
24102;SDS011;12278;53.058;9.028;2023-08-21T11:02:22;1.30;;;1.00;;
24102;SDS011;12278;53.058;9.028;2023-08-21T11:06:23;2.85;;;1.20;;
24102;SDS011;12278;53.058;9.028;2023-08-21T11:10:24;1.80;;;0.93;;
24102;SDS011;12278;53.058;9.028;2023-08-21T11:14:27;3.80;;;1.85;;
24102;SDS011;12278;53.058;9.028;2023-08-21T11:18:37;2.45;;;1.20;;
24102;SDS011;12278;53.058;9.028;2023-08-21T11:22:38;2.60;;;1.20;;
24102;SDS011;12278;53.058;9.028;2023-08-21T11:26:39;1.88;;;1.60;;
24102;SDS011;12278;53.058;9.028;2023-08-21T11:30:39;3.55;;;1.30;;
24102;SDS011;12278;53.058;9.028;2023-08-21T11:34:41;1.25;;;0.98;;
24102;SDS011;12278;53.058;9.028;2023-08-21T11:38:42;4.13;;;1.20;;
24102;SDS011;12278;53.058;9.028;2023-08-21T11:43:00;2.83;;;1.15;;
24102;SDS011;12278;53.058;9.028;2023-08-21T11:47:02;3.83;;;1.33;;
24102;SDS011;12278;53.058;9.028;2023-08-21T11:51:03;2.40;;;0.93;;
24102;SDS011;12278;53.058;9.028;2023-08-21T11:55:07;1.75;;;1.10;;
24102;SDS011;12278;53.058;9.028;2023-08-21T11:59:10;1.90;;;1.30;;
24102;SDS011;12278;53.058;9.028;2023-08-21T12:03:20;4.25;;;1.52;;
24102;SDS011;12278;53.058;9.028;2023-08-21T12:07:21;4.10;;;1.15;;
24102;SDS011;12278;53.058;9.028;2023-08-21T12:11:22;3.90;;;1.10;;
24102;SDS011;12278;53.058;9.028;2023-08-21T12:15:22;1.88;;;1.05;;
24102;SDS011;12278;53.058;9.028;2023-08-21T12:19:23;2.00;;;1.10;;
24102;SDS011;12278;53.058;9.028;2023-08-21T12:23:24;2.90;;;1.55;;
24102;SDS011;12278;53.058;9.028;2023-08-21T12:27:25;2.65;;;1.25;;
24102;SDS011;12278;53.058;9.028;2023-08-21T12:31:25;6.00;;;1.40;;
24102;SDS011;12278;53.058;9.028;2023-08-21T12:35:27;1.35;;;1.15;;
24102;SDS011;12278;53.058;9.028;2023-08-21T12:39:28;2.85;;;1.38;;
24102;SDS011;12278;53.058;9.028;2023-08-21T12:43:30;3.17;;;1.65;;
24102;SDS011;12278;53.058;9.028;2023-08-21T12:47:31;2.47;;;1.67;;
24102;SDS011;12278;53.058;9.028;2023-08-21T12:51:32;1.88;;;1.38;;
24102;SDS011;12278;53.058;9.028;2023-08-21T12:55:33;3.58;;;1.27;;
24102;SDS011;12278;53.058;9.028;2023-08-21T12:59:34;2.30;;;1.75;;
24102;SDS011;12278;53.058;9.028;2023-08-21T13:03:35;3.05;;;1.15;;
24102;SDS011;12278;53.058;9.028;2023-08-21T13:07:35;5.35;;;1.52;;
24102;SDS011;12278;53.058;9.028;2023-08-21T13:11:36;1.83;;;1.25;;
24102;SDS011;12278;53.058;9.028;2023-08-21T13:15:36;3.17;;;1.42;;
24102;SDS011;12278;53.058;9.028;2023-08-21T13:19:37;1.92;;;1.55;;
24102;SDS011;12278;53.058;9.028;2023-08-21T13:23:38;2.08;;;1.60;;
24102;SDS011;12278;53.058;9.028;2023-08-21T13:27:38;1.73;;;1.10;;
24102;SDS011;12278;53.058;9.028;2023-08-21T13:31:39;2.05;;;1.05;;
24102;SDS011;12278;53.058;9.028;2023-08-21T13:35:39;2.05;;;1.23;;
24102;SDS011;12278;53.058;9.028;2023-08-21T13:39:40;3.35;;;1.10;;
24102;SDS011;12278;53.058;9.028;2023-08-21T13:43:41;1.13;;;0.98;;
24102;SDS011;12278;53.058;9.028;2023-08-21T13:47:42;2.03;;;1.27;;
24102;SDS011;12278;53.058;9.028;2023-08-21T13:51:50;1.20;;;1.10;;
24102;SDS011;12278;53.058;9.028;2023-08-21T13:55:50;2.13;;;1.30;;
24102;SDS011;12278;53.058;9.028;2023-08-21T13:59:51;2.10;;;1.30;;
24102;SDS011;12278;53.058;9.028;2023-08-21T14:03:52;1.45;;;1.15;;
24102;SDS011;12278;53.058;9.028;2023-08-21T14:07:53;2.45;;;1.15;;
24102;SDS011;12278;53.058;9.028;2023-08-21T14:11:53;2.67;;;0.90;;
24102;SDS011;12278;53.058;9.028;2023-08-21T14:15:54;1.65;;;1.08;;
24102;SDS011;12278;53.058;9.028;2023-08-21T14:19:54;2.10;;;1.27;;
24102;SDS011;12278;53.058;9.028;2023-08-21T14:23:56;4.35;;;1.40;;
24102;SDS011;12278;53.058;9.028;2023-08-21T14:27:56;1.75;;;1.50;;
24102;SDS011;12278;53.058;9.028;2023-08-21T14:31:57;1.73;;;1.10;;
24102;SDS011;12278;53.058;9.028;2023-08-21T14:35:59;2.45;;;1.55;;
24102;SDS011;12278;53.058;9.028;2023-08-21T14:40:00;1.92;;;1.33;;
24102;SDS011;12278;53.058;9.028;2023-08-21T14:44:01;2.70;;;1.15;;
24102;SDS011;12278;53.058;9.028;2023-08-21T14:48:02;3.28;;;1.10;;
24102;SDS011;12278;53.058;9.028;2023-08-21T14:52:02;2.72;;;1.20;;
24102;SDS011;12278;53.058;9.028;2023-08-21T14:56:03;2.25;;;1.25;;
24102;SDS011;12278;53.058;9.028;2023-08-21T15:00:04;1.95;;;1.15;;
24102;SDS011;12278;53.058;9.028;2023-08-21T15:04:06;3.70;;;1.70;;
24102;SDS011;12278;53.058;9.028;2023-08-21T15:08:07;1.75;;;1.00;;
24102;SDS011;12278;53.058;9.028;2023-08-21T15:12:07;1.83;;;1.08;;
24102;SDS011;12278;53.058;9.028;2023-08-21T15:16:08;2.03;;;1.20;;
24102;SDS011;12278;53.058;9.028;2023-08-21T15:20:10;2.35;;;0.90;;
24102;SDS011;12278;53.058;9.028;2023-08-21T15:24:13;5.22;;;1.35;;
24102;SDS011;12278;53.058;9.028;2023-08-21T15:28:13;3.03;;;1.20;;
24102;SDS011;12278;53.058;9.028;2023-08-21T15:32:14;2.55;;;1.23;;
24102;SDS011;12278;53.058;9.028;2023-08-21T15:36:15;1.50;;;1.35;;
24102;SDS011;12278;53.058;9.028;2023-08-21T15:40:15;4.18;;;1.40;;
24102;SDS011;12278;53.058;9.028;2023-08-21T15:44:16;2.83;;;1.35;;
24102;SDS011;12278;53.058;9.028;2023-08-21T15:48:17;3.80;;;1.27;;
24102;SDS011;12278;53.058;9.028;2023-08-21T15:52:17;1.42;;;1.27;;
24102;SDS011;12278;53.058;9.028;2023-08-21T15:56:18;1.90;;;1.35;;
24102;SDS011;12278;53.058;9.028;2023-08-21T16:00:18;2.35;;;1.08;;
24102;SDS011;12278;53.058;9.028;2023-08-21T16:04:21;1.42;;;1.00;;
24102;SDS011;12278;53.058;9.028;2023-08-21T16:08:22;2.08;;;1.10;;
24102;SDS011;12278;53.058;9.028;2023-08-21T16:12:22;4.57;;;1.52;;
24102;SDS011;12278;53.058;9.028;2023-08-21T16:16:23;2.58;;;1.50;;
24102;SDS011;12278;53.058;9.028;2023-08-21T16:20:26;2.08;;;1.00;;
24102;SDS011;12278;53.058;9.028;2023-08-21T16:24:28;1.42;;;1.25;;
24102;SDS011;12278;53.058;9.028;2023-08-21T16:28:28;1.38;;;1.27;;
24102;SDS011;12278;53.058;9.028;2023-08-21T16:32:29;3.97;;;1.70;;
24102;SDS011;12278;53.058;9.028;2023-08-21T16:36:30;3.00;;;1.20;;
24102;SDS011;12278;53.058;9.028;2023-08-21T16:40:30;1.23;;;1.13;;
24102;SDS011;12278;53.058;9.028;2023-08-21T16:44:32;1.30;;;1.20;;
24102;SDS011;12278;53.058;9.028;2023-08-21T16:48:32;1.40;;;1.15;;
24102;SDS011;12278;53.058;9.028;2023-08-21T16:52:33;1.15;;;1.05;;
24102;SDS011;12278;53.058;9.028;2023-08-21T16:56:34;3.72;;;1.70;;
24102;SDS011;12278;53.058;9.028;2023-08-21T17:00:35;2.85;;;1.77;;
24102;SDS011;12278;53.058;9.028;2023-08-21T17:04:35;1.67;;;1.48;;
24102;SDS011;12278;53.058;9.028;2023-08-21T17:08:36;3.10;;;2.35;;
24102;SDS011;12278;53.058;9.028;2023-08-21T17:12:37;3.97;;;2.00;;
24102;SDS011;12278;53.058;9.028;2023-08-21T17:16:38;3.72;;;1.75;;
24102;SDS011;12278;53.058;9.028;2023-08-21T17:20:38;3.35;;;1.90;;
24102;SDS011;12278;53.058;9.028;2023-08-21T17:24:39;6.75;;;4.53;;
24102;SDS011;12278;53.058;9.028;2023-08-21T17:28:40;4.78;;;2.35;;
24102;SDS011;12278;53.058;9.028;2023-08-21T17:32:40;2.45;;;2.10;;
24102;SDS011;12278;53.058;9.028;2023-08-21T17:36:41;2.50;;;1.98;;
24102;SDS011;12278;53.058;9.028;2023-08-21T17:40:42;2.45;;;1.48;;
24102;SDS011;12278;53.058;9.028;2023-08-21T17:44:44;1.65;;;1.27;;
24102;SDS011;12278;53.058;9.028;2023-08-21T17:48:45;4.40;;;1.48;;
24102;SDS011;12278;53.058;9.028;2023-08-21T17:52:45;2.63;;;1.42;;
24102;SDS011;12278;53.058;9.028;2023-08-21T17:56:46;3.35;;;1.30;;
24102;SDS011;12278;53.058;9.028;2023-08-21T18:00:47;4.70;;;1.45;;
24102;SDS011;12278;53.058;9.028;2023-08-21T18:04:47;1.35;;;1.25;;
24102;SDS011;12278;53.058;9.028;2023-08-21T18:08:48;4.30;;;1.48;;
24102;SDS011;12278;53.058;9.028;2023-08-21T18:12:49;2.35;;;1.98;;
24102;SDS011;12278;53.058;9.028;2023-08-21T18:16:55;2.63;;;1.85;;
24102;SDS011;12278;53.058;9.028;2023-08-21T18:21:01;2.75;;;2.03;;
24102;SDS011;12278;53.058;9.028;2023-08-21T18:25:02;2.13;;;1.92;;
24102;SDS011;12278;53.058;9.028;2023-08-21T18:29:04;2.60;;;1.73;;
24102;SDS011;12278;53.058;9.028;2023-08-21T18:33:04;3.97;;;1.90;;
24102;SDS011;12278;53.058;9.028;2023-08-21T18:37:06;2.75;;;1.80;;
24102;SDS011;12278;53.058;9.028;2023-08-21T18:41:08;6.32;;;2.05;;
24102;SDS011;12278;53.058;9.028;2023-08-21T18:45:09;3.25;;;1.70;;
24102;SDS011;12278;53.058;9.028;2023-08-21T18:49:09;4.90;;;2.00;;
24102;SDS011;12278;53.058;9.028;2023-08-21T18:53:10;4.40;;;1.73;;
24102;SDS011;12278;53.058;9.028;2023-08-21T18:57:13;5.63;;;2.05;;
24102;SDS011;12278;53.058;9.028;2023-08-21T19:01:14;2.28;;;1.30;;
24102;SDS011;12278;53.058;9.028;2023-08-21T19:05:15;2.88;;;1.40;;
24102;SDS011;12278;53.058;9.028;2023-08-21T19:09:15;1.90;;;1.60;;
24102;SDS011;12278;53.058;9.028;2023-08-21T19:13:16;3.80;;;1.85;;
24102;SDS011;12278;53.058;9.028;2023-08-21T19:17:17;4.03;;;2.88;;
24102;SDS011;12278;53.058;9.028;2023-08-21T19:21:17;7.50;;;3.92;;
24102;SDS011;12278;53.058;9.028;2023-08-21T19:25:18;5.07;;;3.60;;
24102;SDS011;12278;53.058;9.028;2023-08-21T19:29:18;7.18;;;4.63;;
24102;SDS011;12278;53.058;9.028;2023-08-21T19:33:19;7.68;;;4.03;;
24102;SDS011;12278;53.058;9.028;2023-08-21T19:37:23;12.75;;;5.72;;
24102;SDS011;12278;53.058;9.028;2023-08-21T19:41:24;7.70;;;4.47;;
24102;SDS011;12278;53.058;9.028;2023-08-21T19:45:25;6.03;;;2.97;;
24102;SDS011;12278;53.058;9.028;2023-08-21T19:49:25;8.38;;;3.75;;
24102;SDS011;12278;53.058;9.028;2023-08-21T19:53:26;8.20;;;4.25;;
24102;SDS011;12278;53.058;9.028;2023-08-21T19:57:27;9.70;;;4.45;;
24102;SDS011;12278;53.058;9.028;2023-08-21T20:01:27;8.70;;;3.88;;
24102;SDS011;12278;53.058;9.028;2023-08-21T20:05:28;7.05;;;2.78;;
24102;SDS011;12278;53.058;9.028;2023-08-21T20:09:28;3.90;;;2.47;;
24102;SDS011;12278;53.058;9.028;2023-08-21T20:13:29;9.52;;;3.72;;
24102;SDS011;12278;53.058;9.028;2023-08-21T20:17:30;5.45;;;3.55;;
24102;SDS011;12278;53.058;9.028;2023-08-21T20:21:31;3.22;;;2.70;;
24102;SDS011;12278;53.058;9.028;2023-08-21T20:25:32;4.18;;;2.83;;
24102;SDS011;12278;53.058;9.028;2023-08-21T20:29:33;4.90;;;2.63;;
24102;SDS011;12278;53.058;9.028;2023-08-21T20:33:34;5.82;;;3.05;;
24102;SDS011;12278;53.058;9.028;2023-08-21T20:37:34;10.38;;;4.18;;
24102;SDS011;12278;53.058;9.028;2023-08-21T20:41:37;8.75;;;4.20;;
24102;SDS011;12278;53.058;9.028;2023-08-21T20:45:38;9.90;;;5.03;;
24102;SDS011;12278;53.058;9.028;2023-08-21T20:49:38;8.60;;;4.20;;
24102;SDS011;12278;53.058;9.028;2023-08-21T20:53:40;6.30;;;3.88;;
24102;SDS011;12278;53.058;9.028;2023-08-21T20:57:41;6.43;;;3.60;;
24102;SDS011;12278;53.058;9.028;2023-08-21T21:01:41;4.20;;;2.97;;
24102;SDS011;12278;53.058;9.028;2023-08-21T21:05:42;6.03;;;3.05;;
24102;SDS011;12278;53.058;9.028;2023-08-21T21:09:43;4.68;;;2.72;;
24102;SDS011;12278;53.058;9.028;2023-08-21T21:13:43;6.47;;;3.17;;
24102;SDS011;12278;53.058;9.028;2023-08-21T21:17:44;4.28;;;2.22;;
24102;SDS011;12278;53.058;9.028;2023-08-21T21:21:45;3.45;;;2.30;;
24102;SDS011;12278;53.058;9.028;2023-08-21T21:25:45;4.50;;;2.75;;
24102;SDS011;12278;53.058;9.028;2023-08-21T21:29:46;3.28;;;2.13;;
24102;SDS011;12278;53.058;9.028;2023-08-21T21:33:46;4.38;;;2.10;;
24102;SDS011;12278;53.058;9.028;2023-08-21T21:37:52;2.15;;;1.63;;
24102;SDS011;12278;53.058;9.028;2023-08-21T21:41:52;2.53;;;2.10;;
24102;SDS011;12278;53.058;9.028;2023-08-21T21:45:54;1.95;;;1.75;;
24102;SDS011;12278;53.058;9.028;2023-08-21T21:49:57;3.20;;;2.08;;
24102;SDS011;12278;53.058;9.028;2023-08-21T21:53:57;5.25;;;2.20;;
24102;SDS011;12278;53.058;9.028;2023-08-21T21:57:58;2.58;;;1.92;;
24102;SDS011;12278;53.058;9.028;2023-08-21T22:01:58;7.38;;;2.55;;
24102;SDS011;12278;53.058;9.028;2023-08-21T22:05:59;3.35;;;3.05;;
24102;SDS011;12278;53.058;9.028;2023-08-21T22:10:00;3.40;;;3.03;;
24102;SDS011;12278;53.058;9.028;2023-08-21T22:14:01;4.65;;;2.75;;
24102;SDS011;12278;53.058;9.028;2023-08-21T22:18:01;3.40;;;2.33;;
24102;SDS011;12278;53.058;9.028;2023-08-21T22:22:02;2.85;;;2.58;;
24102;SDS011;12278;53.058;9.028;2023-08-21T22:26:03;3.55;;;2.50;;
24102;SDS011;12278;53.058;9.028;2023-08-21T22:30:04;3.53;;;2.70;;
24102;SDS011;12278;53.058;9.028;2023-08-21T22:34:05;4.60;;;3.05;;
24102;SDS011;12278;53.058;9.028;2023-08-21T22:38:06;5.43;;;2.85;;
24102;SDS011;12278;53.058;9.028;2023-08-21T22:42:07;4.53;;;2.22;;
24102;SDS011;12278;53.058;9.028;2023-08-21T22:46:08;3.30;;;2.50;;
24102;SDS011;12278;53.058;9.028;2023-08-21T22:50:08;4.55;;;2.60;;
24102;SDS011;12278;53.058;9.028;2023-08-21T22:54:09;3.00;;;1.90;;
24102;SDS011;12278;53.058;9.028;2023-08-21T22:58:10;3.58;;;2.33;;
24102;SDS011;12278;53.058;9.028;2023-08-21T23:02:10;2.45;;;1.85;;
24102;SDS011;12278;53.058;9.028;2023-08-21T23:06:11;2.83;;;2.20;;
24102;SDS011;12278;53.058;9.028;2023-08-21T23:10:11;4.78;;;2.85;;
24102;SDS011;12278;53.058;9.028;2023-08-21T23:14:12;4.75;;;2.40;;
24102;SDS011;12278;53.058;9.028;2023-08-21T23:18:13;4.30;;;2.42;;
24102;SDS011;12278;53.058;9.028;2023-08-21T23:22:13;4.70;;;2.10;;
24102;SDS011;12278;53.058;9.028;2023-08-21T23:26:14;2.47;;;2.28;;
24102;SDS011;12278;53.058;9.028;2023-08-21T23:30:15;4.93;;;2.80;;
24102;SDS011;12278;53.058;9.028;2023-08-21T23:34:16;3.88;;;2.10;;
24102;SDS011;12278;53.058;9.028;2023-08-21T23:38:16;3.90;;;2.30;;
24102;SDS011;12278;53.058;9.028;2023-08-21T23:42:17;2.33;;;2.13;;
24102;SDS011;12278;53.058;9.028;2023-08-21T23:46:18;3.53;;;2.22;;
24102;SDS011;12278;53.058;9.028;2023-08-21T23:50:19;2.53;;;2.00;;
24102;SDS011;12278;53.058;9.028;2023-08-21T23:54:20;4.05;;;2.53;;
24102;SDS011;12278;53.058;9.028;2023-08-21T23:58:20;2.88;;;2.15;;
